sensor_id;sensor_type;location;lat;lon;timestamp;P1;durP1;ratioP1;P2;durP2;ratioP2
75798;SDS011;65035;44.726;37.764;2022-12-31T00:00:10;2.38;;;1.38;;
75798;SDS011;65035;44.726;37.764;2022-12-31T00:01:14;2.13;;;0.60;;
75798;SDS011;65035;44.726;37.764;2022-12-31T00:02:19;1.85;;;1.63;;
75798;SDS011;65035;44.726;37.764;2022-12-31T00:03:22;2.53;;;1.92;;
75798;SDS011;65035;44.726;37.764;2022-12-31T00:04:28;3.42;;;1.90;;
75798;SDS011;65035;44.726;37.764;2022-12-31T00:05:31;2.15;;;1.73;;
75798;SDS011;65035;44.726;37.764;2022-12-31T00:06:34;2.40;;;2.00;;
75798;SDS011;65035;44.726;37.764;2022-12-31T00:07:47;2.90;;;1.90;;
75798;SDS011;65035;44.726;37.764;2022-12-31T00:08:50;2.15;;;1.50;;
75798;SDS011;65035;44.726;37.764;2022-12-31T00:09:55;2.58;;;1.77;;
75798;SDS011;65035;44.726;37.764;2022-12-31T00:10:57;2.55;;;0.50;;
75798;SDS011;65035;44.726;37.764;2022-12-31T00:12:00;3.30;;;1.73;;
75798;SDS011;65035;44.726;37.764;2022-12-31T00:13:03;3.63;;;2.47;;
75798;SDS011;65035;44.726;37.764;2022-12-31T00:14:06;1.90;;;1.67;;
75798;SDS011;65035;44.726;37.764;2022-12-31T00:15:09;1.77;;;0.82;;
75798;SDS011;65035;44.726;37.764;2022-12-31T00:16:17;3.13;;;2.40;;
75798;SDS011;65035;44.726;37.764;2022-12-31T00:17:21;3.05;;;1.63;;
75798;SDS011;65035;44.726;37.764;2022-12-31T00:18:28;3.38;;;2.20;;
75798;SDS011;65035;44.726;37.764;2022-12-31T00:19:31;3.17;;;1.83;;
75798;SDS011;65035;44.726;37.764;2022-12-31T00:20:34;2.45;;;1.73;;
75798;SDS011;65035;44.726;37.764;2022-12-31T00:21:43;3.10;;;1.80;;
75798;SDS011;65035;44.726;37.764;2022-12-31T00:22:45;2.47;;;1.73;;
75798;SDS011;65035;44.726;37.764;2022-12-31T00:23:48;3.55;;;2.15;;
75798;SDS011;65035;44.726;37.764;2022-12-31T00:24:51;2.00;;;1.70;;
75798;SDS011;65035;44.726;37.764;2022-12-31T00:25:54;2.15;;;1.58;;
75798;SDS011;65035;44.726;37.764;2022-12-31T00:26:57;2.22;;;1.63;;
75798;SDS011;65035;44.726;37.764;2022-12-31T00:28:00;1.90;;;1.60;;
75798;SDS011;65035;44.726;37.764;2022-12-31T00:29:05;2.40;;;1.52;;
75798;SDS011;65035;44.726;37.764;2022-12-31T00:30:08;4.07;;;1.98;;
75798;SDS011;65035;44.726;37.764;2022-12-31T00:31:12;2.70;;;1.77;;
75798;SDS011;65035;44.726;37.764;2022-12-31T00:32:20;2.80;;;1.60;;
75798;SDS011;65035;44.726;37.764;2022-12-31T00:33:23;3.17;;;2.10;;
75798;SDS011;65035;44.726;37.764;2022-12-31T00:34:29;1.65;;;1.50;;
75798;SDS011;65035;44.726;37.764;2022-12-31T00:35:32;3.20;;;2.17;;
75798;SDS011;65035;44.726;37.764;2022-12-31T00:36:41;2.47;;;1.60;;
75798;SDS011;65035;44.726;37.764;2022-12-31T00:37:52;2.50;;;1.42;;
75798;SDS011;65035;44.726;37.764;2022-12-31T00:38:55;2.00;;;1.77;;
75798;SDS011;65035;44.726;37.764;2022-12-31T00:39:59;2.97;;;2.20;;
75798;SDS011;65035;44.726;37.764;2022-12-31T00:41:02;2.75;;;1.48;;
75798;SDS011;65035;44.726;37.764;2022-12-31T00:42:05;2.65;;;1.90;;
75798;SDS011;65035;44.726;37.764;2022-12-31T00:43:08;2.13;;;1.58;;
75798;SDS011;65035;44.726;37.764;2022-12-31T00:44:11;2.42;;;1.70;;
75798;SDS011;65035;44.726;37.764;2022-12-31T00:45:14;2.80;;;1.77;;
75798;SDS011;65035;44.726;37.764;2022-12-31T00:46:27;2.78;;;1.65;;
75798;SDS011;65035;44.726;37.764;2022-12-31T00:47:30;2.22;;;1.83;;
75798;SDS011;65035;44.726;37.764;2022-12-31T00:48:33;2.20;;;0.35;;
75798;SDS011;65035;44.726;37.764;2022-12-31T00:49:41;2.30;;;1.50;;
75798;SDS011;65035;44.726;37.764;2022-12-31T00:50:44;1.92;;;1.65;;
75798;SDS011;65035;44.726;37.764;2022-12-31T00:51:47;4.22;;;2.00;;
75798;SDS011;65035;44.726;37.764;2022-12-31T00:52:51;2.50;;;1.13;;
75798;SDS011;65035;44.726;37.764;2022-12-31T00:53:56;2.65;;;1.85;;
75798;SDS011;65035;44.726;37.764;2022-12-31T00:54:59;3.03;;;1.73;;
75798;SDS011;65035;44.726;37.764;2022-12-31T00:56:04;2.40;;;1.50;;
75798;SDS011;65035;44.726;37.764;2022-12-31T00:57:14;2.50;;;1.73;;
75798;SDS011;65035;44.726;37.764;2022-12-31T00:58:27;1.58;;;1.40;;
75798;SDS011;65035;44.726;37.764;2022-12-31T00:59:34;1.88;;;1.35;;
75798;SDS011;65035;44.726;37.764;2022-12-31T01:00:46;3.28;;;1.65;;
75798;SDS011;65035;44.726;37.764;2022-12-31T01:01:49;2.15;;;0.20;;
75798;SDS011;65035;44.726;37.764;2022-12-31T01:02:54;2.40;;;1.13;;
75798;SDS011;65035;44.726;37.764;2022-12-31T01:03:58;2.28;;;1.83;;
75798;SDS011;65035;44.726;37.764;2022-12-31T01:05:03;2.42;;;1.90;;
75798;SDS011;65035;44.726;37.764;2022-12-31T01:06:06;2.63;;;1.98;;
75798;SDS011;65035;44.726;37.764;2022-12-31T01:07:09;1.98;;;1.38;;
75798;SDS011;65035;44.726;37.764;2022-12-31T01:08:12;2.47;;;1.35;;
75798;SDS011;65035;44.726;37.764;2022-12-31T01:09:15;2.88;;;1.30;;
75798;SDS011;65035;44.726;37.764;2022-12-31T01:10:18;2.67;;;1.92;;
75798;SDS011;65035;44.726;37.764;2022-12-31T01:11:41;2.13;;;1.40;;
75798;SDS011;65035;44.726;37.764;2022-12-31T01:12:45;2.35;;;0.30;;
75798;SDS011;65035;44.726;37.764;2022-12-31T01:13:52;2.83;;;1.90;;
75798;SDS011;65035;44.726;37.764;2022-12-31T01:14:57;1.63;;;0.15;;
75798;SDS011;65035;44.726;37.764;2022-12-31T01:18:03;1.77;;;0.70;;
75798;SDS011;65035;44.726;37.764;2022-12-31T01:19:11;1.92;;;0.63;;
75798;SDS011;65035;44.726;37.764;2022-12-31T01:20:18;2.22;;;1.35;;
75798;SDS011;65035;44.726;37.764;2022-12-31T01:21:21;2.03;;;0.60;;
75798;SDS011;65035;44.726;37.764;2022-12-31T01:22:24;1.58;;;0.32;;
75798;SDS011;65035;44.726;37.764;2022-12-31T01:23:27;1.92;;;0.20;;
75798;SDS011;65035;44.726;37.764;2022-12-31T01:24:30;3.25;;;0.30;;
75798;SDS011;65035;44.726;37.764;2022-12-31T01:25:39;2.17;;;0.35;;
75798;SDS011;65035;44.726;37.764;2022-12-31T01:26:45;2.45;;;0.30;;
75798;SDS011;65035;44.726;37.764;2022-12-31T01:27:48;1.27;;;0.30;;
75798;SDS011;65035;44.726;37.764;2022-12-31T01:29:54;4.20;;;0.35;;
75798;SDS011;65035;44.726;37.764;2022-12-31T01:30:58;1.70;;;0.30;;
75798;SDS011;65035;44.726;37.764;2022-12-31T01:32:04;1.73;;;0.20;;
75798;SDS011;65035;44.726;37.764;2022-12-31T01:33:07;1.23;;;0.30;;
75798;SDS011;65035;44.726;37.764;2022-12-31T01:35:05;2.03;;;1.48;;
75798;SDS011;65035;44.726;37.764;2022-12-31T01:36:14;1.98;;;1.52;;
75798;SDS011;65035;44.726;37.764;2022-12-31T01:37:29;2.85;;;1.15;;
75798;SDS011;65035;44.726;37.764;2022-12-31T01:38:32;1.95;;;0.93;;
75798;SDS011;65035;44.726;37.764;2022-12-31T01:39:36;2.95;;;1.10;;
75798;SDS011;65035;44.726;37.764;2022-12-31T01:40:39;3.22;;;1.70;;
75798;SDS011;65035;44.726;37.764;2022-12-31T01:41:43;2.17;;;0.95;;
75798;SDS011;65035;44.726;37.764;2022-12-31T01:42:52;2.45;;;1.80;;
75798;SDS011;65035;44.726;37.764;2022-12-31T01:45:14;2.65;;;1.63;;
75798;SDS011;65035;44.726;37.764;2022-12-31T01:46:23;2.28;;;1.30;;
75798;SDS011;65035;44.726;37.764;2022-12-31T01:47:44;2.55;;;1.85;;
75798;SDS011;65035;44.726;37.764;2022-12-31T01:48:52;2.20;;;1.58;;
75798;SDS011;65035;44.726;37.764;2022-12-31T01:50:02;4.05;;;1.67;;
75798;SDS011;65035;44.726;37.764;2022-12-31T01:51:09;1.73;;;1.05;;
75798;SDS011;65035;44.726;37.764;2022-12-31T01:52:14;1.60;;;1.42;;
75798;SDS011;65035;44.726;37.764;2022-12-31T01:53:33;2.95;;;1.67;;
75798;SDS011;65035;44.726;37.764;2022-12-31T01:54:43;2.20;;;1.70;;
75798;SDS011;65035;44.726;37.764;2022-12-31T01:55:54;2.60;;;1.45;;
75798;SDS011;65035;44.726;37.764;2022-12-31T01:57:00;2.35;;;1.60;;
75798;SDS011;65035;44.726;37.764;2022-12-31T01:58:06;3.40;;;2.08;;
75798;SDS011;65035;44.726;37.764;2022-12-31T01:59:12;1.92;;;1.55;;
75798;SDS011;65035;44.726;37.764;2022-12-31T02:00:18;2.13;;;1.45;;
75798;SDS011;65035;44.726;37.764;2022-12-31T02:01:25;2.08;;;1.63;;
75798;SDS011;65035;44.726;37.764;2022-12-31T02:03:19;2.58;;;0.52;;
75798;SDS011;65035;44.726;37.764;2022-12-31T02:04:23;2.42;;;0.90;;
75798;SDS011;65035;44.726;37.764;2022-12-31T02:05:39;1.77;;;0.22;;
75798;SDS011;65035;44.726;37.764;2022-12-31T02:08:04;1.70;;;0.43;;
75798;SDS011;65035;44.726;37.764;2022-12-31T02:09:55;2.05;;;0.20;;
75798;SDS011;65035;44.726;37.764;2022-12-31T02:11:20;2.10;;;0.40;;
75798;SDS011;65035;44.726;37.764;2022-12-31T02:12:25;1.77;;;0.20;;
75798;SDS011;65035;44.726;37.764;2022-12-31T02:13:28;1.88;;;0.45;;
75798;SDS011;65035;44.726;37.764;2022-12-31T02:17:14;1.90;;;0.20;;
75798;SDS011;65035;44.726;37.764;2022-12-31T02:25:28;2.00;;;0.50;;
75798;SDS011;65035;44.726;37.764;2022-12-31T02:31:12;2.22;;;0.57;;
75798;SDS011;65035;44.726;37.764;2022-12-31T02:32:34;1.95;;;0.30;;
75798;SDS011;65035;44.726;37.764;2022-12-31T02:33:39;1.95;;;0.50;;
75798;SDS011;65035;44.726;37.764;2022-12-31T02:34:50;2.17;;;0.50;;
75798;SDS011;65035;44.726;37.764;2022-12-31T02:37:08;1.95;;;0.47;;
75798;SDS011;65035;44.726;37.764;2022-12-31T02:38:21;2.10;;;0.40;;
75798;SDS011;65035;44.726;37.764;2022-12-31T02:39:30;2.08;;;0.45;;
75798;SDS011;65035;44.726;37.764;2022-12-31T02:40:35;1.80;;;0.52;;
75798;SDS011;65035;44.726;37.764;2022-12-31T02:41:39;2.20;;;0.20;;
75798;SDS011;65035;44.726;37.764;2022-12-31T02:43:01;1.52;;;0.30;;
75798;SDS011;65035;44.726;37.764;2022-12-31T02:46:42;1.73;;;0.25;;
75798;SDS011;65035;44.726;37.764;2022-12-31T02:49:24;2.45;;;0.57;;
75798;SDS011;65035;44.726;37.764;2022-12-31T02:50:47;2.35;;;0.63;;
75798;SDS011;65035;44.726;37.764;2022-12-31T03:00:30;1.98;;;0.68;;
75798;SDS011;65035;44.726;37.764;2022-12-31T03:01:55;2.08;;;0.32;;
75798;SDS011;65035;44.726;37.764;2022-12-31T03:03:18;1.67;;;0.38;;
75798;SDS011;65035;44.726;37.764;2022-12-31T03:04:22;2.42;;;0.45;;
75798;SDS011;65035;44.726;37.764;2022-12-31T03:05:36;1.52;;;0.47;;
75798;SDS011;65035;44.726;37.764;2022-12-31T03:07:33;2.63;;;0.30;;
75798;SDS011;65035;44.726;37.764;2022-12-31T03:08:40;1.70;;;0.30;;
75798;SDS011;65035;44.726;37.764;2022-12-31T03:10:04;2.13;;;0.20;;
75798;SDS011;65035;44.726;37.764;2022-12-31T03:12:31;1.67;;;0.38;;
75798;SDS011;65035;44.726;37.764;2022-12-31T03:13:47;1.70;;;0.20;;
75798;SDS011;65035;44.726;37.764;2022-12-31T03:15:54;2.88;;;0.82;;
75798;SDS011;65035;44.726;37.764;2022-12-31T03:17:00;1.77;;;0.20;;
75798;SDS011;65035;44.726;37.764;2022-12-31T03:18:10;3.75;;;0.20;;
75798;SDS011;65035;44.726;37.764;2022-12-31T03:19:15;2.38;;;0.30;;
75798;SDS011;65035;44.726;37.764;2022-12-31T03:20:45;1.90;;;0.22;;
75798;SDS011;65035;44.726;37.764;2022-12-31T03:22:13;3.00;;;0.40;;
75798;SDS011;65035;44.726;37.764;2022-12-31T03:23:41;2.35;;;0.35;;
75798;SDS011;65035;44.726;37.764;2022-12-31T03:24:59;2.90;;;0.40;;
75798;SDS011;65035;44.726;37.764;2022-12-31T03:26:31;3.30;;;0.50;;
75798;SDS011;65035;44.726;37.764;2022-12-31T03:27:34;2.10;;;1.23;;
75798;SDS011;65035;44.726;37.764;2022-12-31T03:28:41;1.88;;;0.32;;
75798;SDS011;65035;44.726;37.764;2022-12-31T03:29:48;2.38;;;0.40;;
75798;SDS011;65035;44.726;37.764;2022-12-31T03:30:53;2.50;;;0.28;;
75798;SDS011;65035;44.726;37.764;2022-12-31T03:32:01;2.08;;;0.40;;
75798;SDS011;65035;44.726;37.764;2022-12-31T03:33:04;2.55;;;0.40;;
75798;SDS011;65035;44.726;37.764;2022-12-31T03:34:56;2.47;;;1.98;;
75798;SDS011;65035;44.726;37.764;2022-12-31T03:36:11;2.42;;;1.85;;
75798;SDS011;65035;44.726;37.764;2022-12-31T03:37:15;1.85;;;1.35;;
75798;SDS011;65035;44.726;37.764;2022-12-31T03:38:28;2.03;;;1.75;;
75798;SDS011;65035;44.726;37.764;2022-12-31T03:39:36;2.17;;;1.30;;
75798;SDS011;65035;44.726;37.764;2022-12-31T03:40:43;2.35;;;1.42;;
75798;SDS011;65035;44.726;37.764;2022-12-31T03:41:48;2.83;;;1.25;;
75798;SDS011;65035;44.726;37.764;2022-12-31T03:42:50;2.10;;;1.27;;
75798;SDS011;65035;44.726;37.764;2022-12-31T03:43:53;1.77;;;1.67;;
75798;SDS011;65035;44.726;37.764;2022-12-31T03:44:56;2.97;;;1.83;;
75798;SDS011;65035;44.726;37.764;2022-12-31T03:45:59;2.25;;;1.75;;
75798;SDS011;65035;44.726;37.764;2022-12-31T03:47:02;1.70;;;1.48;;
75798;SDS011;65035;44.726;37.764;2022-12-31T03:48:08;2.63;;;1.52;;
75798;SDS011;65035;44.726;37.764;2022-12-31T03:49:11;2.90;;;1.35;;
75798;SDS011;65035;44.726;37.764;2022-12-31T03:50:15;2.25;;;1.95;;
75798;SDS011;65035;44.726;37.764;2022-12-31T03:51:19;2.78;;;1.65;;
75798;SDS011;65035;44.726;37.764;2022-12-31T03:52:22;4.50;;;1.65;;
75798;SDS011;65035;44.726;37.764;2022-12-31T03:53:25;2.88;;;1.92;;
75798;SDS011;65035;44.726;37.764;2022-12-31T03:54:28;1.90;;;1.50;;
75798;SDS011;65035;44.726;37.764;2022-12-31T03:55:31;1.98;;;0.25;;
75798;SDS011;65035;44.726;37.764;2022-12-31T03:57:22;1.42;;;0.40;;
75798;SDS011;65035;44.726;37.764;2022-12-31T03:58:25;2.10;;;0.32;;
75798;SDS011;65035;44.726;37.764;2022-12-31T03:59:38;2.70;;;0.52;;
75798;SDS011;65035;44.726;37.764;2022-12-31T04:00:41;1.63;;;0.30;;
75798;SDS011;65035;44.726;37.764;2022-12-31T04:01:45;1.58;;;0.30;;
75798;SDS011;65035;44.726;37.764;2022-12-31T04:02:48;2.08;;;0.30;;
75798;SDS011;65035;44.726;37.764;2022-12-31T04:03:54;2.35;;;0.40;;
75798;SDS011;65035;44.726;37.764;2022-12-31T04:04:57;3.13;;;0.68;;
75798;SDS011;65035;44.726;37.764;2022-12-31T04:06:07;1.73;;;0.43;;
75798;SDS011;65035;44.726;37.764;2022-12-31T04:07:11;1.33;;;0.40;;
75798;SDS011;65035;44.726;37.764;2022-12-31T04:08:15;2.85;;;0.60;;
75798;SDS011;65035;44.726;37.764;2022-12-31T04:09:27;2.15;;;0.60;;
75798;SDS011;65035;44.726;37.764;2022-12-31T04:10:30;3.10;;;0.30;;
75798;SDS011;65035;44.726;37.764;2022-12-31T04:11:35;2.05;;;0.30;;
75798;SDS011;65035;44.726;37.764;2022-12-31T04:12:38;1.60;;;0.47;;
75798;SDS011;65035;44.726;37.764;2022-12-31T04:13:40;1.63;;;0.13;;
75798;SDS011;65035;44.726;37.764;2022-12-31T04:14:43;1.95;;;0.40;;
75798;SDS011;65035;44.726;37.764;2022-12-31T04:15:48;2.53;;;0.43;;
75798;SDS011;65035;44.726;37.764;2022-12-31T04:16:52;1.10;;;0.52;;
75798;SDS011;65035;44.726;37.764;2022-12-31T04:17:54;1.48;;;0.47;;
75798;SDS011;65035;44.726;37.764;2022-12-31T04:18:58;2.35;;;0.20;;
75798;SDS011;65035;44.726;37.764;2022-12-31T04:20:02;3.00;;;0.73;;
75798;SDS011;65035;44.726;37.764;2022-12-31T04:21:05;1.13;;;0.32;;
75798;SDS011;65035;44.726;37.764;2022-12-31T04:22:18;2.78;;;0.20;;
75798;SDS011;65035;44.726;37.764;2022-12-31T04:23:21;1.30;;;0.20;;
75798;SDS011;65035;44.726;37.764;2022-12-31T04:24:24;1.40;;;0.20;;
75798;SDS011;65035;44.726;37.764;2022-12-31T04:25:27;1.40;;;0.25;;
75798;SDS011;65035;44.726;37.764;2022-12-31T04:26:29;1.60;;;0.38;;
75798;SDS011;65035;44.726;37.764;2022-12-31T04:27:32;1.35;;;0.50;;
75798;SDS011;65035;44.726;37.764;2022-12-31T04:28:35;1.52;;;0.20;;
75798;SDS011;65035;44.726;37.764;2022-12-31T04:29:39;1.75;;;0.20;;
75798;SDS011;65035;44.726;37.764;2022-12-31T04:30:43;2.22;;;0.40;;
75798;SDS011;65035;44.726;37.764;2022-12-31T04:31:46;2.05;;;0.65;;
75798;SDS011;65035;44.726;37.764;2022-12-31T04:32:49;1.63;;;0.30;;
75798;SDS011;65035;44.726;37.764;2022-12-31T04:33:52;2.75;;;1.65;;
75798;SDS011;65035;44.726;37.764;2022-12-31T04:34:55;2.25;;;0.40;;
75798;SDS011;65035;44.726;37.764;2022-12-31T04:36:04;1.70;;;0.35;;
75798;SDS011;65035;44.726;37.764;2022-12-31T04:37:09;1.35;;;0.20;;
75798;SDS011;65035;44.726;37.764;2022-12-31T04:38:12;2.10;;;0.57;;
75798;SDS011;65035;44.726;37.764;2022-12-31T04:39:15;2.50;;;0.32;;
75798;SDS011;65035;44.726;37.764;2022-12-31T04:40:18;1.88;;;0.60;;
75798;SDS011;65035;44.726;37.764;2022-12-31T04:41:21;1.55;;;0.20;;
75798;SDS011;65035;44.726;37.764;2022-12-31T04:42:25;1.73;;;0.47;;
75798;SDS011;65035;44.726;37.764;2022-12-31T04:43:28;2.13;;;0.40;;
75798;SDS011;65035;44.726;37.764;2022-12-31T04:44:34;1.88;;;0.22;;
75798;SDS011;65035;44.726;37.764;2022-12-31T04:45:37;2.20;;;0.40;;
75798;SDS011;65035;44.726;37.764;2022-12-31T04:46:44;1.50;;;0.55;;
75798;SDS011;65035;44.726;37.764;2022-12-31T04:47:57;2.00;;;0.73;;
75798;SDS011;65035;44.726;37.764;2022-12-31T04:49:00;2.47;;;0.55;;
75798;SDS011;65035;44.726;37.764;2022-12-31T04:51:06;1.90;;;0.50;;
75798;SDS011;65035;44.726;37.764;2022-12-31T04:52:09;2.10;;;0.28;;
75798;SDS011;65035;44.726;37.764;2022-12-31T04:53:11;2.78;;;0.40;;
75798;SDS011;65035;44.726;37.764;2022-12-31T04:54:16;2.65;;;0.60;;
75798;SDS011;65035;44.726;37.764;2022-12-31T04:55:19;2.22;;;1.73;;
75798;SDS011;65035;44.726;37.764;2022-12-31T04:56:32;1.55;;;0.40;;
75798;SDS011;65035;44.726;37.764;2022-12-31T04:57:37;2.42;;;0.50;;
75798;SDS011;65035;44.726;37.764;2022-12-31T04:58:42;2.60;;;0.20;;
75798;SDS011;65035;44.726;37.764;2022-12-31T04:59:45;2.22;;;0.22;;
75798;SDS011;65035;44.726;37.764;2022-12-31T05:00:49;1.50;;;0.50;;
75798;SDS011;65035;44.726;37.764;2022-12-31T05:01:53;2.10;;;0.22;;
75798;SDS011;65035;44.726;37.764;2022-12-31T05:02:56;2.15;;;0.38;;
75798;SDS011;65035;44.726;37.764;2022-12-31T05:03:58;2.00;;;0.50;;
75798;SDS011;65035;44.726;37.764;2022-12-31T05:05:01;1.73;;;0.30;;
75798;SDS011;65035;44.726;37.764;2022-12-31T05:06:10;2.30;;;0.30;;
75798;SDS011;65035;44.726;37.764;2022-12-31T05:07:18;2.78;;;0.40;;
75798;SDS011;65035;44.726;37.764;2022-12-31T05:08:21;1.65;;;0.65;;
75798;SDS011;65035;44.726;37.764;2022-12-31T05:09:24;1.83;;;0.32;;
75798;SDS011;65035;44.726;37.764;2022-12-31T05:10:28;1.73;;;0.30;;
75798;SDS011;65035;44.726;37.764;2022-12-31T05:11:32;2.33;;;0.55;;
75798;SDS011;65035;44.726;37.764;2022-12-31T05:12:36;1.65;;;0.43;;
75798;SDS011;65035;44.726;37.764;2022-12-31T05:13:39;1.92;;;0.40;;
75798;SDS011;65035;44.726;37.764;2022-12-31T05:14:42;1.58;;;0.63;;
75798;SDS011;65035;44.726;37.764;2022-12-31T05:15:45;2.92;;;0.50;;
75798;SDS011;65035;44.726;37.764;2022-12-31T05:16:58;2.83;;;0.50;;
75798;SDS011;65035;44.726;37.764;2022-12-31T05:18:02;3.00;;;0.85;;
75798;SDS011;65035;44.726;37.764;2022-12-31T05:19:05;3.10;;;0.90;;
75798;SDS011;65035;44.726;37.764;2022-12-31T05:20:10;3.10;;;0.50;;
75798;SDS011;65035;44.726;37.764;2022-12-31T05:21:14;2.20;;;0.93;;
75798;SDS011;65035;44.726;37.764;2022-12-31T05:22:21;2.03;;;0.50;;
75798;SDS011;65035;44.726;37.764;2022-12-31T05:23:38;1.98;;;0.75;;
75798;SDS011;65035;44.726;37.764;2022-12-31T05:24:46;3.20;;;0.60;;
75798;SDS011;65035;44.726;37.764;2022-12-31T05:25:48;6.10;;;1.05;;
75798;SDS011;65035;44.726;37.764;2022-12-31T05:26:59;4.63;;;0.70;;
75798;SDS011;65035;44.726;37.764;2022-12-31T05:28:03;3.45;;;0.65;;
75798;SDS011;65035;44.726;37.764;2022-12-31T05:29:06;1.85;;;0.45;;
75798;SDS011;65035;44.726;37.764;2022-12-31T05:30:09;2.17;;;0.50;;
75798;SDS011;65035;44.726;37.764;2022-12-31T05:31:14;3.72;;;0.77;;
75798;SDS011;65035;44.726;37.764;2022-12-31T05:32:17;3.10;;;0.77;;
75798;SDS011;65035;44.726;37.764;2022-12-31T05:33:20;2.78;;;0.98;;
75798;SDS011;65035;44.726;37.764;2022-12-31T05:34:27;2.88;;;0.52;;
75798;SDS011;65035;44.726;37.764;2022-12-31T05:35:33;2.47;;;0.70;;
75798;SDS011;65035;44.726;37.764;2022-12-31T05:36:36;2.33;;;0.45;;
75798;SDS011;65035;44.726;37.764;2022-12-31T05:37:39;2.58;;;0.60;;
75798;SDS011;65035;44.726;37.764;2022-12-31T05:38:42;2.45;;;0.85;;
75798;SDS011;65035;44.726;37.764;2022-12-31T05:39:52;2.30;;;0.70;;
75798;SDS011;65035;44.726;37.764;2022-12-31T05:42:04;2.50;;;0.50;;
75798;SDS011;65035;44.726;37.764;2022-12-31T05:43:07;1.90;;;0.50;;
75798;SDS011;65035;44.726;37.764;2022-12-31T05:44:10;2.22;;;0.52;;
75798;SDS011;65035;44.726;37.764;2022-12-31T05:45:13;3.42;;;1.92;;
75798;SDS011;65035;44.726;37.764;2022-12-31T05:46:19;2.35;;;0.82;;
75798;SDS011;65035;44.726;37.764;2022-12-31T05:47:22;2.80;;;1.30;;
75798;SDS011;65035;44.726;37.764;2022-12-31T05:48:25;2.65;;;0.52;;
75798;SDS011;65035;44.726;37.764;2022-12-31T05:49:28;2.58;;;0.70;;
75798;SDS011;65035;44.726;37.764;2022-12-31T05:50:30;2.00;;;0.73;;
75798;SDS011;65035;44.726;37.764;2022-12-31T05:51:48;2.20;;;0.65;;
75798;SDS011;65035;44.726;37.764;2022-12-31T05:52:51;2.35;;;0.95;;
75798;SDS011;65035;44.726;37.764;2022-12-31T05:53:54;2.20;;;0.60;;
75798;SDS011;65035;44.726;37.764;2022-12-31T05:54:56;2.60;;;0.47;;
75798;SDS011;65035;44.726;37.764;2022-12-31T05:55:59;2.83;;;0.77;;
75798;SDS011;65035;44.726;37.764;2022-12-31T05:57:03;3.10;;;0.70;;
75798;SDS011;65035;44.726;37.764;2022-12-31T05:58:09;2.15;;;0.60;;
75798;SDS011;65035;44.726;37.764;2022-12-31T05:59:12;2.00;;;0.60;;
75798;SDS011;65035;44.726;37.764;2022-12-31T06:00:14;3.10;;;0.85;;
75798;SDS011;65035;44.726;37.764;2022-12-31T06:01:19;2.90;;;0.73;;
75798;SDS011;65035;44.726;37.764;2022-12-31T06:02:22;2.03;;;0.73;;
75798;SDS011;65035;44.726;37.764;2022-12-31T06:03:25;2.85;;;1.27;;
75798;SDS011;65035;44.726;37.764;2022-12-31T06:04:28;3.08;;;1.52;;
75798;SDS011;65035;44.726;37.764;2022-12-31T06:05:31;4.40;;;1.50;;
75798;SDS011;65035;44.726;37.764;2022-12-31T06:06:34;2.85;;;0.95;;
75798;SDS011;65035;44.726;37.764;2022-12-31T06:07:36;3.75;;;1.25;;
75798;SDS011;65035;44.726;37.764;2022-12-31T06:08:39;2.42;;;1.00;;
75798;SDS011;65035;44.726;37.764;2022-12-31T06:09:42;3.38;;;1.27;;
75798;SDS011;65035;44.726;37.764;2022-12-31T06:10:47;3.67;;;1.55;;
75798;SDS011;65035;44.726;37.764;2022-12-31T06:11:53;4.53;;;0.95;;
75798;SDS011;65035;44.726;37.764;2022-12-31T06:13:03;3.40;;;0.70;;
75798;SDS011;65035;44.726;37.764;2022-12-31T06:14:09;2.80;;;1.77;;
75798;SDS011;65035;44.726;37.764;2022-12-31T06:15:12;2.75;;;0.70;;
75798;SDS011;65035;44.726;37.764;2022-12-31T06:16:15;2.63;;;0.40;;
75798;SDS011;65035;44.726;37.764;2022-12-31T06:17:22;3.35;;;0.95;;
75798;SDS011;65035;44.726;37.764;2022-12-31T06:18:25;2.72;;;0.70;;
75798;SDS011;65035;44.726;37.764;2022-12-31T06:19:31;3.35;;;0.90;;
75798;SDS011;65035;44.726;37.764;2022-12-31T06:20:36;2.45;;;0.90;;
75798;SDS011;65035;44.726;37.764;2022-12-31T06:21:40;3.15;;;1.08;;
75798;SDS011;65035;44.726;37.764;2022-12-31T06:22:44;4.32;;;1.30;;
75798;SDS011;65035;44.726;37.764;2022-12-31T06:23:50;3.50;;;1.55;;
75798;SDS011;65035;44.726;37.764;2022-12-31T06:25:25;23.40;;;2.70;;
75798;SDS011;65035;44.726;37.764;2022-12-31T06:26:51;6.10;;;0.85;;
75798;SDS011;65035;44.726;37.764;2022-12-31T06:28:38;4.05;;;0.90;;
75798;SDS011;65035;44.726;37.764;2022-12-31T06:29:55;3.70;;;1.05;;
75798;SDS011;65035;44.726;37.764;2022-12-31T06:31:01;4.65;;;1.20;;
75798;SDS011;65035;44.726;37.764;2022-12-31T06:32:06;5.25;;;1.20;;
75798;SDS011;65035;44.726;37.764;2022-12-31T06:33:08;7.53;;;1.67;;
75798;SDS011;65035;44.726;37.764;2022-12-31T06:34:11;4.93;;;2.38;;
75798;SDS011;65035;44.726;37.764;2022-12-31T06:35:14;4.60;;;1.50;;
75798;SDS011;65035;44.726;37.764;2022-12-31T06:36:27;3.78;;;1.20;;
75798;SDS011;65035;44.726;37.764;2022-12-31T06:37:30;6.13;;;2.10;;
75798;SDS011;65035;44.726;37.764;2022-12-31T06:38:35;6.10;;;1.55;;
75798;SDS011;65035;44.726;37.764;2022-12-31T06:39:39;5.88;;;1.35;;
75798;SDS011;65035;44.726;37.764;2022-12-31T06:40:42;4.72;;;1.15;;
75798;SDS011;65035;44.726;37.764;2022-12-31T06:41:44;3.78;;;1.40;;
75798;SDS011;65035;44.726;37.764;2022-12-31T06:42:47;4.20;;;1.40;;
75798;SDS011;65035;44.726;37.764;2022-12-31T06:43:56;4.78;;;1.23;;
75798;SDS011;65035;44.726;37.764;2022-12-31T06:45:00;4.55;;;1.70;;
75798;SDS011;65035;44.726;37.764;2022-12-31T06:46:04;5.65;;;1.73;;
75798;SDS011;65035;44.726;37.764;2022-12-31T06:47:08;5.65;;;2.60;;
75798;SDS011;65035;44.726;37.764;2022-12-31T06:48:11;5.95;;;2.33;;
75798;SDS011;65035;44.726;37.764;2022-12-31T06:49:13;5.00;;;1.75;;
75798;SDS011;65035;44.726;37.764;2022-12-31T06:50:17;4.75;;;2.25;;
75798;SDS011;65035;44.726;37.764;2022-12-31T06:51:27;4.80;;;1.50;;
75798;SDS011;65035;44.726;37.764;2022-12-31T06:52:30;4.10;;;1.60;;
75798;SDS011;65035;44.726;37.764;2022-12-31T06:53:37;4.38;;;1.75;;
75798;SDS011;65035;44.726;37.764;2022-12-31T06:54:40;4.22;;;1.90;;
75798;SDS011;65035;44.726;37.764;2022-12-31T06:55:43;4.85;;;2.10;;
75798;SDS011;65035;44.726;37.764;2022-12-31T06:56:46;5.32;;;1.70;;
75798;SDS011;65035;44.726;37.764;2022-12-31T06:57:49;2.97;;;1.35;;
75798;SDS011;65035;44.726;37.764;2022-12-31T06:58:55;4.20;;;1.15;;
75798;SDS011;65035;44.726;37.764;2022-12-31T07:00:00;4.20;;;1.88;;
75798;SDS011;65035;44.726;37.764;2022-12-31T07:01:09;3.33;;;1.60;;
75798;SDS011;65035;44.726;37.764;2022-12-31T07:03:42;5.10;;;1.65;;
75798;SDS011;65035;44.726;37.764;2022-12-31T07:05:05;3.95;;;3.00;;
75798;SDS011;65035;44.726;37.764;2022-12-31T07:06:50;4.13;;;1.88;;
75798;SDS011;65035;44.726;37.764;2022-12-31T07:08:07;5.00;;;1.48;;
75798;SDS011;65035;44.726;37.764;2022-12-31T07:09:25;3.40;;;1.58;;
75798;SDS011;65035;44.726;37.764;2022-12-31T07:12:10;5.88;;;2.22;;
75798;SDS011;65035;44.726;37.764;2022-12-31T07:15:10;4.20;;;1.40;;
75798;SDS011;65035;44.726;37.764;2022-12-31T07:16:24;3.88;;;1.67;;
75798;SDS011;65035;44.726;37.764;2022-12-31T07:17:52;3.08;;;1.58;;
75798;SDS011;65035;44.726;37.764;2022-12-31T07:20:42;4.60;;;1.38;;
75798;SDS011;65035;44.726;37.764;2022-12-31T07:21:55;3.75;;;1.60;;
75798;SDS011;65035;44.726;37.764;2022-12-31T07:23:00;4.85;;;1.15;;
75798;SDS011;65035;44.726;37.764;2022-12-31T07:24:06;3.45;;;1.40;;